Time;durP1;ratioP1;P1;durP2;ratioP2;P2;SDS_P1;SDS_P2;PMS_P1;PMS_P2;Temp;Humidity;BMP_temperature;BMP_pressure;BME280_temperature;BME280_humidity;BME280_pressure;Samples;Min_cycle;Max_cycle;Signal;HPM_P1;HPM_P2
2021/03/19 00:01:18;;;;;;;2.07;1.57;;;0.40;99.90;;;;;;5004384;28;20711;-51
2021/03/19 00:03:43;;;;;;;2.63;1.33;;;0.40;99.90;;;;;;4990660;28;20240;-55
2021/03/19 00:06:09;;;;;;;2.30;1.43;;;0.40;99.90;;;;;;4988617;28;20228;-58
2021/03/19 00:08:34;;;;;;;1.80;1.43;;;0.40;99.90;;;;;;4984358;28;20920;-53
2021/03/19 00:11:01;;;;;;;2.57;1.03;;;0.40;99.90;;;;;;4980423;28;20264;-49
2021/03/19 00:13:26;;;;;;;1.80;1.23;;;0.40;99.90;;;;;;4994804;28;20523;-55
2021/03/19 00:15:52;;;;;;;2.63;0.90;;;0.50;99.90;;;;;;5005694;28;20205;-50
2021/03/19 00:18:18;;;;;;;1.73;1.33;;;0.50;99.90;;;;;;4984338;28;20210;-53
2021/03/19 00:20:46;;;;;;;3.07;1.20;;;0.40;99.90;;;;;;4982048;28;20212;-49
2021/03/19 00:23:11;;;;;;;1.57;1.30;;;0.40;99.90;;;;;;4997404;28;20192;-55
2021/03/19 00:25:38;;;;;;;2.90;1.20;;;0.30;99.90;;;;;;4989827;28;20676;-52
2021/03/19 00:28:05;;;;;;;4.53;0.97;;;0.30;99.90;;;;;;4997408;28;20207;-53
2021/03/19 00:30:31;;;;;;;2.07;1.23;;;0.40;99.90;;;;;;4993260;28;20169;-50
2021/03/19 00:32:57;;;;;;;2.30;1.60;;;0.40;99.90;;;;;;4998497;28;20185;-52
2021/03/19 00:35:23;;;;;;;2.97;1.40;;;0.40;99.90;;;;;;4983583;28;20669;-56
2021/03/19 00:37:49;;;;;;;1.83;1.10;;;0.40;99.90;;;;;;4988727;28;20220;-50
2021/03/19 00:40:15;;;;;;;1.50;1.10;;;0.40;99.90;;;;;;4994142;28;20578;-53
2021/03/19 00:42:42;;;;;;;1.07;0.90;;;0.50;99.90;;;;;;4983434;28;20796;-50
2021/03/19 00:45:10;;;;;;;1.13;0.87;;;0.50;99.90;;;;;;4996697;28;20202;-52
2021/03/19 00:47:35;;;;;;;1.00;0.80;;;0.60;99.90;;;;;;4982925;28;20189;-50
2021/03/19 00:50:04;;;;;;;1.87;1.27;;;0.60;99.90;;;;;;4984833;28;20256;-50
2021/03/19 00:52:29;;;;;;;3.10;1.10;;;0.60;99.90;;;;;;4987143;28;20193;-50
2021/03/19 00:54:55;;;;;;;1.23;1.00;;;0.60;99.90;;;;;;5001450;28;20189;-51
2021/03/19 00:57:20;;;;;;;1.20;1.10;;;0.60;99.90;;;;;;4986029;28;20535;-54
2021/03/19 00:59:46;;;;;;;2.00;0.90;;;0.60;99.90;;;;;;4999319;28;20209;-53
2021/03/19 01:02:12;;;;;;;2.00;1.00;;;0.60;99.90;;;;;;5002665;28;20212;-52
2021/03/19 01:04:37;;;;;;;1.50;0.90;;;0.60;99.90;;;;;;4982854;28;20177;-55
2021/03/19 01:07:03;;;;;;;1.63;0.80;;;0.60;99.90;;;;;;4999878;28;20211;-53
2021/03/19 01:09:28;;;;;;;3.70;1.00;;;0.60;99.90;;;;;;4990792;28;20204;-50
2021/03/19 01:11:54;;;;;;;1.10;1.00;;;0.60;99.90;;;;;;5005665;28;20252;-49
2021/03/19 01:14:20;;;;;;;1.90;1.20;;;0.60;99.90;;;;;;4988723;28;20235;-54
2021/03/19 01:16:45;;;;;;;2.07;1.17;;;0.50;99.90;;;;;;4997368;28;20194;-53
2021/03/19 01:19:12;;;;;;;2.10;0.80;;;0.50;99.90;;;;;;4984731;28;20182;-55
2021/03/19 01:21:37;;;;;;;1.93;1.30;;;0.50;99.90;;;;;;5002323;28;20918;-53
2021/03/19 01:24:03;;;;;;;1.40;1.23;;;0.50;99.90;;;;;;4989604;28;20188;-54
2021/03/19 01:26:29;;;;;;;2.00;1.13;;;0.40;99.90;;;;;;4996734;28;20200;-56
2021/03/19 01:28:54;;;;;;;1.57;1.13;;;0.40;99.90;;;;;;5004816;28;20186;-52
2021/03/19 01:31:21;;;;;;;1.37;1.00;;;0.30;99.90;;;;;;4988826;28;20185;-53
2021/03/19 01:33:46;;;;;;;1.17;1.07;;;0.30;99.90;;;;;;4988859;28;20169;-53
2021/03/19 01:36:12;;;;;;;1.73;1.10;;;0.30;99.90;;;;;;4987716;28;20347;-54
2021/03/19 01:38:39;;;;;;;1.20;1.10;;;0.30;99.90;;;;;;4996373;28;20213;-54
2021/03/19 01:41:06;;;;;;;2.87;1.83;;;0.30;99.90;;;;;;4990753;28;20209;-53
2021/03/19 01:43:47;;;;;;;1.70;1.23;;;0.30;99.90;;;;;;5001127;28;20911;-51
2021/03/19 01:46:50;;;;;;;1.27;0.90;;;0.30;99.90;;;;;;4989762;28;20693;-53
2021/03/19 01:49:53;;;;;;;2.33;1.20;;;0.20;99.90;;;;;;4994849;28;20177;-51
2021/03/19 01:52:56;;;;;;;1.30;1.10;;;0.10;99.90;;;;;;5002472;28;20177;-54
2021/03/19 01:55:59;;;;;;;4.10;1.47;;;0.10;99.90;;;;;;4992463;28;20605;-52
2021/03/19 01:59:02;;;;;;;2.10;1.30;;;0.10;99.90;;;;;;5000490;28;20689;-50
2021/03/19 02:02:05;;;;;;;2.47;1.50;;;0.10;99.90;;;;;;4978450;28;20296;-53
2021/03/19 02:05:08;;;;;;;1.53;1.40;;;0.00;99.90;;;;;;4993350;28;20252;-50
2021/03/19 02:08:11;;;;;;;1.73;1.07;;;0.00;99.90;;;;;;5000491;28;20200;-52
2021/03/19 02:11:14;;;;;;;1.30;1.20;;;0.00;99.90;;;;;;4994740;28;20830;-55
2021/03/19 02:14:17;;;;;;;1.77;1.07;;;-0.10;99.90;;;;;;4982808;28;20453;-51
2021/03/19 02:17:20;;;;;;;2.03;1.47;;;-0.10;99.90;;;;;;4973839;28;20311;-54
2021/03/19 02:20:23;;;;;;;2.17;1.20;;;-0.10;99.90;;;;;;4996540;28;20208;-52
2021/03/19 02:23:26;;;;;;;2.23;1.50;;;-0.20;99.90;;;;;;5003318;28;20177;-52
2021/03/19 02:26:30;;;;;;;3.47;1.60;;;-0.20;99.90;;;;;;5002680;28;20173;-54
2021/03/19 02:29:33;;;;;;;3.00;1.47;;;-0.20;99.90;;;;;;4993396;28;20605;-53
2021/03/19 02:32:16;;;;;;;1.43;1.23;;;-0.10;99.90;;;;;;4987272;28;20197;-52
2021/03/19 02:35:05;;;;;;;1.30;1.20;;;-0.20;99.90;;;;;;4996212;28;20816;-54
2021/03/19 02:37:34;;;;;;;2.80;1.53;;;-0.20;99.90;;;;;;4998421;28;20190;-51
2021/03/19 02:40:01;;;;;;;2.40;1.73;;;-0.20;99.90;;;;;;5003648;28;20677;-51
2021/03/19 02:42:30;;;;;;;1.93;1.63;;;-0.20;99.90;;;;;;4990194;28;20213;-57
2021/03/19 02:44:57;;;;;;;1.70;1.60;;;-0.20;99.90;;;;;;5003430;28;20598;-50
2021/03/19 02:47:22;;;;;;;1.43;1.00;;;-0.20;99.90;;;;;;4983674;28;20220;-56
2021/03/19 02:49:49;;;;;;;1.50;1.40;;;-0.30;99.90;;;;;;4990675;28;20194;-52
2021/03/19 02:52:17;;;;;;;2.20;1.63;;;-0.30;99.90;;;;;;4982746;28;20202;-56
2021/03/19 02:54:42;;;;;;;4.37;2.00;;;-0.30;99.90;;;;;;4981784;28;20236;-52
2021/03/19 02:57:08;;;;;;;1.40;1.30;;;-0.40;99.90;;;;;;4983671;28;20197;-56
2021/03/19 02:59:34;;;;;;;1.63;1.53;;;-0.40;99.90;;;;;;4988956;28;20449;-53
2021/03/19 03:01:59;;;;;;;2.83;1.30;;;-0.40;99.90;;;;;;5003700;28;20263;-48
2021/03/19 03:04:25;;;;;;;1.87;1.60;;;-0.40;99.90;;;;;;4985181;28;20189;-48
2021/03/19 03:06:54;;;;;;;4.47;1.73;;;-0.50;99.90;;;;;;4993793;28;20194;-56
2021/03/19 03:09:23;;;;;;;2.07;1.80;;;-0.50;99.90;;;;;;4982720;28;20182;-53
2021/03/19 03:11:49;;;;;;;3.97;2.00;;;-0.40;99.90;;;;;;4981436;28;20636;-57
2021/03/19 03:14:18;;;;;;;3.53;1.97;;;-0.40;99.90;;;;;;4983931;28;21465;-52
2021/03/19 03:16:44;;;;;;;3.27;1.70;;;-0.40;99.90;;;;;;5002419;28;20274;-57
2021/03/19 03:19:13;;;;;;;3.90;1.80;;;-0.40;99.90;;;;;;4985976;28;20809;-49
2021/03/19 03:21:39;;;;;;;4.50;1.90;;;-0.40;99.90;;;;;;4995054;28;20196;-55
2021/03/19 03:24:06;;;;;;;5.20;1.90;;;-0.40;99.90;;;;;;4999505;28;20453;-50
2021/03/19 03:26:31;;;;;;;3.77;1.80;;;-0.40;99.90;;;;;;5003323;28;20205;-50
2021/03/19 03:28:58;;;;;;;2.30;1.93;;;-0.40;99.90;;;;;;4989081;28;20683;-57
2021/03/19 03:31:24;;;;;;;3.83;2.43;;;-0.40;99.90;;;;;;5003082;28;20535;-54
2021/03/19 03:33:49;;;;;;;3.10;2.03;;;-0.40;99.90;;;;;;4993787;28;20193;-51
2021/03/19 03:36:15;;;;;;;2.60;2.40;;;-0.40;99.90;;;;;;4986554;28;20185;-52
2021/03/19 03:38:41;;;;;;;2.60;2.40;;;-0.40;99.90;;;;;;5002240;28;20707;-55
2021/03/19 03:41:12;;;;;;;2.90;2.57;;;-0.30;99.90;;;;;;4999771;28;20204;-52
2021/03/19 03:43:38;;;;;;;3.60;2.43;;;-0.30;99.90;;;;;;4997012;28;20266;-53
2021/03/19 03:46:06;;;;;;;2.60;2.40;;;-0.30;99.90;;;;;;4995059;28;20250;-51
2021/03/19 03:48:33;;;;;;;3.67;2.40;;;-0.30;99.90;;;;;;5002151;28;20287;-50
2021/03/19 03:51:01;;;;;;;3.10;2.70;;;-0.30;99.90;;;;;;4984159;28;20185;-55
2021/03/19 03:53:28;;;;;;;3.47;2.50;;;-0.30;99.90;;;;;;4998862;28;20181;-52
2021/03/19 03:55:53;;;;;;;4.60;2.93;;;-0.20;99.90;;;;;;4980723;28;20650;-56
2021/03/19 03:58:20;;;;;;;5.63;2.60;;;-0.30;99.90;;;;;;4982524;28;20284;-56
2021/03/19 04:00:46;;;;;;;4.73;3.10;;;-0.30;99.90;;;;;;4992917;28;20251;-54
2021/03/19 04:03:12;;;;;;;3.87;2.83;;;-0.30;99.90;;;;;;4996365;28;20205;-50
2021/03/19 04:05:42;;;;;;;4.70;2.77;;;-0.30;99.90;;;;;;4989597;28;20272;-52
2021/03/19 04:08:09;;;;;;;4.20;2.77;;;-0.30;99.90;;;;;;4987318;28;20212;-56
2021/03/19 04:10:35;;;;;;;4.93;2.90;;;-0.30;99.90;;;;;;4996406;28;20242;-50
2021/03/19 04:13:01;;;;;;;4.53;3.13;;;-0.30;99.90;;;;;;4999112;28;20169;-49
2021/03/19 04:15:27;;;;;;;5.90;3.13;;;-0.30;99.90;;;;;;4996818;28;20635;-51
2021/03/19 04:17:57;;;;;;;9.60;3.90;;;-0.20;99.90;;;;;;4987184;28;20205;-54
2021/03/19 04:20:24;;;;;;;4.07;3.20;;;-0.20;99.90;;;;;;4998234;28;20359;-56
2021/03/19 04:22:50;;;;;;;3.90;3.33;;;-0.20;99.90;;;;;;4986691;28;20184;-53
2021/03/19 04:25:18;;;;;;;8.00;3.50;;;-0.10;99.90;;;;;;4996340;28;20177;-57
2021/03/19 04:28:02;;;;;;;6.10;3.37;;;-0.10;99.90;;;;;;5001802;28;20189;-52
2021/03/19 04:30:32;;;;;;;4.80;3.70;;;0.00;99.90;;;;;;4999323;28;20192;-54
2021/03/19 04:32:59;;;;;;;5.73;3.47;;;0.00;99.90;;;;;;5000605;28;20200;-50
2021/03/19 04:35:26;;;;;;;4.40;3.70;;;0.10;99.90;;;;;;5003439;28;20181;-57
2021/03/19 04:37:58;;;;;;;5.80;3.47;;;0.10;99.90;;;;;;4988268;28;20212;-52
2021/03/19 04:40:25;;;;;;;4.87;3.43;;;0.10;99.90;;;;;;4995729;28;20621;-54
2021/03/19 04:42:52;;;;;;;4.97;3.73;;;0.10;99.90;;;;;;5004467;28;20200;-52
2021/03/19 04:45:18;;;;;;;6.20;4.17;;;0.10;99.90;;;;;;5005508;28;20188;-56
2021/03/19 04:47:44;;;;;;;4.77;4.03;;;0.20;99.90;;;;;;4996604;28;20275;-51
2021/03/19 04:50:12;;;;;;;4.73;3.53;;;0.10;99.90;;;;;;5006067;28;20734;-52
2021/03/19 04:52:38;;;;;;;9.30;4.90;;;0.10;99.90;;;;;;4983045;28;20201;-49
2021/03/19 04:55:05;;;;;;;8.10;3.77;;;0.10;99.90;;;;;;4994500;28;20189;-49
2021/03/19 04:57:31;;;;;;;4.80;3.87;;;0.10;99.90;;;;;;4984402;28;20293;-49
2021/03/19 04:59:57;;;;;;;7.00;4.23;;;0.20;99.90;;;;;;5004917;28;20208;-51
2021/03/19 05:02:36;;;;;;;7.90;3.87;;;0.10;99.90;;;;;;4981960;28;20193;-55
2021/03/19 05:05:02;;;;;;;5.83;4.37;;;0.10;99.90;;;;;;5005970;28;20231;-51
2021/03/19 05:07:27;;;;;;;9.37;4.10;;;0.10;99.90;;;;;;4988014;28;20697;-54
2021/03/19 05:09:53;;;;;;;9.60;4.67;;;0.10;99.90;;;;;;4996782;28;20178;-52
2021/03/19 05:12:19;;;;;;;5.63;4.20;;;0.10;99.90;;;;;;4984952;28;20542;-53
2021/03/19 05:14:45;;;;;;;5.07;3.60;;;0.10;99.90;;;;;;4983137;28;20174;-52
2021/03/19 05:17:11;;;;;;;4.50;3.80;;;0.10;99.90;;;;;;4986298;28;20256;-54
2021/03/19 05:19:36;;;;;;;5.40;4.10;;;0.10;99.90;;;;;;4986485;28;20186;-52
2021/03/19 05:22:02;;;;;;;8.20;4.50;;;0.10;99.90;;;;;;5005880;28;20204;-49
2021/03/19 05:24:28;;;;;;;5.57;4.20;;;0.10;99.90;;;;;;4989047;28;20185;-55
2021/03/19 05:26:53;;;;;;;14.27;5.30;;;0.10;99.90;;;;;;4988513;28;20936;-54
2021/03/19 05:29:19;;;;;;;7.27;4.30;;;0.10;99.90;;;;;;4984730;28;20220;-54
2021/03/19 05:31:44;;;;;;;5.83;4.63;;;0.10;99.90;;;;;;4981763;28;20189;-53
2021/03/19 05:34:11;;;;;;;8.17;4.90;;;0.10;99.90;;;;;;4985821;28;20189;-54
2021/03/19 05:36:37;;;;;;;5.60;4.80;;;0.10;99.90;;;;;;4993760;28;20209;-50
2021/03/19 05:39:05;;;;;;;8.50;5.07;;;0.20;99.90;;;;;;5002448;28;20683;-48
2021/03/19 05:41:33;;;;;;;6.53;4.97;;;0.10;99.90;;;;;;4996967;28;20213;-54
2021/03/19 05:44:07;;;;;;;7.37;4.93;;;0.20;99.90;;;;;;4985137;28;20173;-52
2021/03/19 05:46:41;;;;;;;8.60;5.17;;;0.20;99.90;;;;;;4981519;28;20555;-53
2021/03/19 05:49:15;;;;;;;9.07;4.97;;;0.20;99.90;;;;;;4985293;28;20530;-52
2021/03/19 05:51:47;;;;;;;5.00;4.50;;;0.20;99.90;;;;;;4995119;28;20243;-54
2021/03/19 05:54:24;;;;;;;7.27;4.43;;;0.30;99.90;;;;;;5004884;28;20635;-51
2021/03/19 05:57:00;;;;;;;7.63;5.33;;;0.30;99.90;;;;;;4982633;28;20867;-49
2021/03/19 05:59:30;;;;;;;7.77;5.47;;;0.30;99.90;;;;;;4999598;28;20181;-53
2021/03/19 06:01:56;;;;;;;9.83;5.20;;;0.30;99.90;;;;;;4996143;28;20804;-51
2021/03/19 06:04:25;;;;;;;6.70;5.40;;;0.40;99.90;;;;;;4991401;28;20184;-53
2021/03/19 06:06:59;;;;;;;7.83;4.73;;;0.40;99.90;;;;;;4994709;28;20209;-49
2021/03/19 06:09:32;;;;;;;9.10;5.70;;;0.40;99.90;;;;;;4987339;28;20193;-51
2021/03/19 06:12:15;;;;;;;8.20;5.90;;;0.40;99.90;;;;;;4995149;28;20276;-54
2021/03/19 06:14:54;;;;;;;7.17;5.37;;;0.40;99.90;;;;;;4996094;28;20770;-50
2021/03/19 06:17:29;;;;;;;8.77;5.93;;;0.50;99.90;;;;;;4994575;28;20684;-55
2021/03/19 06:20:08;;;;;;;9.80;5.40;;;0.50;99.90;;;;;;4995095;28;20200;-52
2021/03/19 06:22:41;;;;;;;8.93;5.43;;;0.50;99.90;;;;;;4989817;28;20193;-56
2021/03/19 06:25:26;;;;;;;8.00;6.20;;;0.60;99.90;;;;;;4985277;28;20193;-50
2021/03/19 06:27:55;;;;;;;8.17;5.50;;;0.60;99.90;;;;;;4999376;28;20195;-52
2021/03/19 06:30:25;;;;;;;8.63;5.47;;;0.60;99.90;;;;;;4990168;28;20178;-57
2021/03/19 06:33:14;;;;;;;10.30;6.37;;;0.70;99.90;;;;;;4986474;28;20508;-53
2021/03/19 06:36:23;;;;;;;10.73;6.07;;;0.70;99.90;;;;;;4994389;28;20180;-52
2021/03/19 06:39:02;;;;;;;8.83;5.27;;;0.70;99.90;;;;;;4983827;28;20921;-51
2021/03/19 06:41:29;;;;;;;8.27;5.57;;;0.80;99.90;;;;;;4982698;28;20212;-56
2021/03/19 06:44:14;;;;;;;9.37;6.03;;;0.80;99.90;;;;;;4991250;28;20189;-49
2021/03/19 06:46:48;;;;;;;6.80;5.40;;;0.90;99.90;;;;;;4995642;28;20958;-53
2021/03/19 06:49:15;;;;;;;7.93;5.47;;;0.90;99.90;;;;;;5000395;28;20192;-55
2021/03/19 06:51:44;;;;;;;8.43;5.80;;;0.90;99.90;;;;;;5000024;28;20173;-52
2021/03/19 06:54:18;;;;;;;8.67;5.23;;;0.90;99.90;;;;;;4998242;28;20558;-53
2021/03/19 06:57:10;;;;;;;8.47;5.30;;;1.00;99.90;;;;;;4974574;28;20218;-51
2021/03/19 06:59:39;;;;;;;8.90;5.30;;;1.10;99.90;;;;;;4985746;28;20260;-54
2021/03/19 07:02:41;;;;;;;7.93;5.97;;;1.10;99.90;;;;;;4995755;28;20644;-50
2021/03/19 07:05:23;;;;;;;8.40;5.27;;;1.10;99.90;;;;;;4995531;28;20181;-54
2021/03/19 07:08:16;;;;;;;11.90;5.97;;;1.20;99.90;;;;;;5000441;28;20217;-56
2021/03/19 07:10:47;;;;;;;6.30;5.07;;;1.30;99.90;;;;;;4993343;28;20193;-52
2021/03/19 07:13:50;;;;;;;10.80;6.10;;;1.30;99.90;;;;;;4989620;28;20219;-53
2021/03/19 07:16:47;;;;;;;9.93;5.73;;;1.40;99.90;;;;;;4985338;28;20192;-55
2021/03/19 07:19:43;;;;;;;10.40;5.90;;;1.40;99.90;;;;;;4987111;28;20204;-53
2021/03/19 07:22:27;;;;;;;9.70;5.70;;;1.50;99.90;;;;;;4998786;28;20221;-49
2021/03/19 07:25:13;;;;;;;8.60;5.60;;;1.60;99.90;;;;;;4986947;28;20549;-58
2021/03/19 07:28:04;;;;;;;8.43;5.50;;;1.70;99.90;;;;;;4978952;28;20899;-53
2021/03/19 07:30:36;;;;;;;11.40;5.33;;;1.70;99.90;;;;;;4992085;28;20642;-49
2021/03/19 07:34:00;;;;;;;7.37;6.10;;;1.80;99.90;;;;;;4993143;28;20870;-55
2021/03/19 07:36:48;;;;;;;8.40;5.37;;;1.80;99.90;;;;;;5017318;28;20194;-50
2021/03/19 07:39:55;;;;;;;9.07;5.60;;;1.90;99.90;;;;;;5014439;28;20244;-49
2021/03/19 07:43:00;;;;;;;7.60;5.70;;;2.10;99.90;;;;;;4987473;28;20276;-53
2021/03/19 07:45:57;;;;;;;11.27;5.93;;;2.20;99.90;;;;;;4992423;28;20267;-58
2021/03/19 07:48:43;;;;;;;6.93;5.10;;;2.40;99.90;;;;;;4995535;28;20207;-58
2021/03/19 07:51:27;;;;;;;10.97;5.20;;;2.60;99.90;;;;;;5012047;28;20279;-51
2021/03/19 07:54:10;;;;;;;7.87;5.17;;;2.80;99.90;;;;;;4988345;28;20222;-59
2021/03/19 07:56:38;;;;;;;8.60;4.73;;;2.90;99.90;;;;;;4983320;28;20213;-59
2021/03/19 07:59:28;;;;;;;6.73;4.73;;;3.10;99.90;;;;;;4978450;28;20210;-49
2021/03/19 08:02:12;;;;;;;5.67;4.10;;;3.30;99.90;;;;;;4989438;28;20263;-55
2021/03/19 08:05:00;;;;;;;6.97;4.10;;;3.50;99.90;;;;;;4983276;28;20179;-49
2021/03/19 08:07:40;;;;;;;10.43;4.60;;;3.60;99.90;;;;;;4995890;28;20428;-51
2021/03/19 08:10:29;;;;;;;5.70;3.63;;;3.60;99.90;;;;;;4994197;28;20723;-57
2021/03/19 08:13:09;;;;;;;4.80;3.73;;;3.70;99.90;;;;;;4995468;28;20200;-57
2021/03/19 08:15:41;;;;;;;5.50;3.43;;;3.70;99.90;;;;;;4993323;28;20292;-53
2021/03/19 08:18:26;;;;;;;5.93;4.10;;;3.70;99.90;;;;;;5001621;28;20699;-57
2021/03/19 08:21:23;;;;;;;4.60;3.13;;;3.70;99.90;;;;;;4991027;28;20227;-52
2021/03/19 08:23:55;;;;;;;5.17;3.43;;;3.70;99.90;;;;;;4996713;28;20179;-47
2021/03/19 08:26:27;;;;;;;6.03;3.67;;;3.80;99.90;;;;;;4985284;28;20866;-52
2021/03/19 08:29:06;;;;;;;4.37;3.60;;;3.90;99.90;;;;;;4984807;28;20196;-48
2021/03/19 08:32:27;;;;;;;4.07;3.03;;;3.90;99.90;;;;;;4998130;28;20184;-50
2021/03/19 08:35:14;;;;;;;3.10;2.80;;;4.00;99.90;;;;;;5007514;28;20205;-48
2021/03/19 08:38:04;;;;;;;5.10;3.50;;;4.00;99.90;;;;;;5014312;28;20216;-49
2021/03/19 08:40:37;;;;;;;5.87;2.70;;;4.10;99.90;;;;;;4997001;28;20366;-50
2021/03/19 08:43:16;;;;;;;5.00;2.27;;;4.20;99.90;;;;;;4991775;28;20242;-56
2021/03/19 08:45:42;;;;;;;3.30;2.40;;;4.30;99.90;;;;;;5000197;28;20189;-48
2021/03/19 08:48:16;;;;;;;3.10;2.00;;;4.20;99.90;;;;;;4993917;28;20218;-56
2021/03/19 08:50:44;;;;;;;5.10;2.23;;;4.20;99.90;;;;;;4990754;28;20196;-54
2021/03/19 08:53:13;;;;;;;2.47;1.90;;;4.30;99.90;;;;;;4983086;28;20238;-57
2021/03/19 08:55:46;;;;;;;5.67;2.27;;;4.40;99.90;;;;;;5000426;28;20197;-51
2021/03/19 08:58:35;;;;;;;1.77;1.67;;;4.30;99.90;;;;;;4983381;28;20213;-58
2021/03/19 09:01:03;;;;;;;1.40;1.30;;;4.20;99.90;;;;;;5000092;28;20208;-55
2021/03/19 09:03:39;;;;;;;2.07;1.77;;;4.20;99.90;;;;;;5000595;28;20190;-54
2021/03/19 09:06:05;;;;;;;1.73;1.30;;;4.20;99.90;;;;;;5001282;28;20191;-51
2021/03/19 09:08:43;;;;;;;1.67;1.57;;;4.30;99.90;;;;;;5001781;28;20189;-51
2021/03/19 09:11:20;;;;;;;2.47;1.70;;;4.30;99.90;;;;;;4994861;28;20209;-57
2021/03/19 09:14:04;;;;;;;3.23;1.60;;;4.50;99.90;;;;;;4999169;28;20271;-55
2021/03/19 09:16:51;;;;;;;1.50;1.40;;;4.70;99.90;;;;;;4997114;28;20197;-53
2021/03/19 09:19:32;;;;;;;5.97;1.13;;;4.80;99.90;;;;;;4994938;28;20180;-52
2021/03/19 09:22:19;;;;;;;1.00;1.00;;;4.80;99.90;;;;;;5003727;28;20567;-58
2021/03/19 09:25:13;;;;;;;1.23;1.10;;;4.90;99.90;;;;;;4994546;28;20192;-50
2021/03/19 09:27:44;;;;;;;1.43;1.03;;;5.00;99.90;;;;;;5003621;28;20215;-54
2021/03/19 09:30:21;;;;;;;2.47;1.17;;;4.90;99.90;;;;;;4979484;28;20222;-58
2021/03/19 09:32:52;;;;;;;0.90;0.90;;;5.00;99.90;;;;;;4997453;28;20267;-55
2021/03/19 09:35:43;;;;;;;1.10;1.00;;;5.00;99.90;;;;;;4991512;28;20189;-54
2021/03/19 09:38:29;;;;;;;1.23;1.10;;;5.00;99.90;;;;;;4998723;28;20266;-57
2021/03/19 09:41:01;;;;;;;5.63;1.40;;;5.00;99.90;;;;;;4991960;28;20225;-55
2021/03/19 09:43:46;;;;;;;1.87;1.10;;;5.00;99.90;;;;;;5000397;28;20871;-54
2021/03/19 09:46:18;;;;;;;1.50;1.10;;;5.00;99.90;;;;;;4980418;28;20189;-57
2021/03/19 09:49:05;;;;;;;3.63;1.47;;;5.00;99.90;;;;;;4996911;28;20181;-56
2021/03/19 09:51:45;;;;;;;2.60;0.90;;;5.20;99.90;;;;;;4999011;28;20164;-55
2021/03/19 09:54:25;;;;;;;2.27;0.70;;;5.30;99.90;;;;;;4989488;28;20250;-53
2021/03/19 09:56:54;;;;;;;1.33;0.77;;;5.20;99.90;;;;;;5000260;28;20558;-54
2021/03/19 09:59:26;;;;;;;1.40;0.60;;;5.30;99.90;;;;;;4994591;28;20239;-48
2021/03/19 10:01:52;;;;;;;0.67;0.67;;;5.30;99.90;;;;;;4979235;28;20209;-53
2021/03/19 10:04:32;;;;;;;1.53;0.80;;;5.30;99.90;;;;;;4998719;28;20173;-52
2021/03/19 10:06:59;;;;;;;0.67;0.60;;;5.30;99.90;;;;;;4994834;28;20280;-51
2021/03/19 10:09:27;;;;;;;3.17;0.83;;;5.40;99.90;;;;;;4995287;28;20224;-48
2021/03/19 10:12:11;;;;;;;1.43;0.70;;;5.40;99.90;;;;;;4979338;28;20197;-57
2021/03/19 10:14:40;;;;;;;1.17;0.43;;;5.60;99.90;;;;;;5003619;28;20523;-56
2021/03/19 10:17:11;;;;;;;1.70;0.90;;;5.60;99.90;;;;;;4976557;28;21799;-55
2021/03/19 10:19:40;;;;;;;0.37;0.37;;;5.60;99.90;;;;;;5002369;28;20191;-54
2021/03/19 10:22:08;;;;;;;0.47;0.47;;;5.70;99.90;;;;;;4991746;28;20259;-53
2021/03/19 10:24:35;;;;;;;0.50;0.50;;;5.90;99.90;;;;;;4999591;28;20193;-54
2021/03/19 10:27:13;;;;;;;0.87;0.30;;;5.90;99.90;;;;;;4986578;28;20951;-52
2021/03/19 10:29:42;;;;;;;0.57;0.50;;;5.70;99.90;;;;;;4998636;28;20204;-55
2021/03/19 10:32:22;;;;;;;0.83;0.60;;;5.60;99.90;;;;;;4986178;28;20185;-49
2021/03/19 10:35:06;;;;;;;0.87;0.40;;;5.60;99.90;;;;;;4985042;28;20195;-53
2021/03/19 10:37:41;;;;;;;0.50;0.50;;;5.60;99.90;;;;;;4988776;28;20347;-54
2021/03/19 10:40:37;;;;;;;0.60;0.60;;;5.80;99.90;;;;;;5003138;28;20559;-53
2021/03/19 10:43:10;;;;;;;1.10;0.80;;;5.80;99.90;;;;;;4982831;28;20201;-53
2021/03/19 10:45:58;;;;;;;1.07;0.70;;;5.70;99.90;;;;;;4980812;28;20609;-53
2021/03/19 10:48:38;;;;;;;1.03;0.50;;;5.60;99.90;;;;;;4990585;28;20379;-54
2021/03/19 10:51:14;;;;;;;1.07;0.50;;;5.70;99.90;;;;;;4991620;28;20633;-53
2021/03/19 10:54:13;;;;;;;0.60;0.47;;;5.80;99.90;;;;;;4995416;28;20764;-53
2021/03/19 10:56:45;;;;;;;1.30;0.70;;;5.90;99.90;;;;;;4996529;28;20274;-54
2021/03/19 10:59:29;;;;;;;1.30;0.60;;;6.00;99.90;;;;;;5003675;28;20700;-51
2021/03/19 11:02:08;;;;;;;0.83;0.60;;;6.10;99.90;;;;;;4991644;28;20589;-54
2021/03/19 11:04:36;;;;;;;1.13;0.40;;;6.20;99.90;;;;;;4978839;28;20196;-54
2021/03/19 11:07:15;;;;;;;2.80;0.73;;;6.20;99.90;;;;;;4992464;28;20215;-54
2021/03/19 11:10:07;;;;;;;1.73;0.33;;;6.00;99.90;;;;;;4995126;28;20932;-51
2021/03/19 11:12:35;;;;;;;1.50;0.70;;;6.00;99.90;;;;;;4994696;28;20189;-57
2021/03/19 11:15:05;;;;;;;2.50;1.00;;;6.00;99.90;;;;;;5002601;28;20173;-49
2021/03/19 11:17:31;;;;;;;3.97;0.70;;;6.10;99.90;;;;;;4991810;28;20197;-57
2021/03/19 11:20:08;;;;;;;1.13;0.70;;;6.10;99.90;;;;;;4999420;28;20211;-51
2021/03/19 11:22:37;;;;;;;1.17;0.80;;;6.10;99.90;;;;;;4980193;28;20181;-54
2021/03/19 11:25:41;;;;;;;1.40;0.70;;;6.20;99.90;;;;;;4999151;28;20184;-52
2021/03/19 11:28:33;;;;;;;2.50;0.70;;;6.30;99.90;;;;;;4995784;28;20204;-53
2021/03/19 11:31:14;;;;;;;0.60;0.60;;;6.20;99.90;;;;;;5003142;28;20232;-54
2021/03/19 11:34:03;;;;;;;2.10;0.90;;;6.00;99.90;;;;;;4985939;28;20177;-56
2021/03/19 11:36:49;;;;;;;1.17;1.07;;;5.90;99.90;;;;;;4984601;28;20200;-57
2021/03/19 11:39:23;;;;;;;1.67;0.60;;;5.80;99.90;;;;;;5001127;28;20196;-56
2021/03/19 11:41:49;;;;;;;2.60;1.00;;;5.80;99.90;;;;;;4999499;28;20258;-56
2021/03/19 11:44:16;;;;;;;2.20;0.97;;;6.00;99.90;;;;;;5006625;28;20501;-56
2021/03/19 11:46:41;;;;;;;2.53;0.90;;;6.10;99.90;;;;;;4995275;28;20219;-51
2021/03/19 11:49:09;;;;;;;1.43;0.70;;;6.20;99.90;;;;;;4991800;28;20756;-56
2021/03/19 11:51:39;;;;;;;3.03;0.80;;;6.20;99.90;;;;;;4983913;28;20320;-54
2021/03/19 11:54:08;;;;;;;3.47;1.03;;;6.20;99.90;;;;;;4997626;28;20664;-53
2021/03/19 11:56:35;;;;;;;3.60;0.93;;;6.20;99.90;;;;;;5002794;28;20211;-51
2021/03/19 11:59:01;;;;;;;3.73;1.30;;;6.10;99.90;;;;;;5006400;28;20181;-51
2021/03/19 12:01:31;;;;;;;2.10;1.00;;;6.10;99.90;;;;;;4997655;28;20200;-58
2021/03/19 12:03:58;;;;;;;2.60;0.90;;;6.00;99.90;;;;;;4995467;28;20176;-53
2021/03/19 12:06:28;;;;;;;1.13;0.80;;;5.90;99.90;;;;;;4988098;28;20197;-57
2021/03/19 12:08:53;;;;;;;2.40;0.80;;;5.90;99.90;;;;;;4990012;28;20193;-49
2021/03/19 12:11:24;;;;;;;2.97;1.10;;;5.90;99.90;;;;;;4986911;28;20197;-57
2021/03/19 12:13:49;;;;;;;4.20;1.70;;;6.00;99.90;;;;;;4982411;28;20194;-57
2021/03/19 12:16:15;;;;;;;2.87;1.20;;;6.00;99.90;;;;;;4993402;28;20262;-55
2021/03/19 12:18:41;;;;;;;1.27;0.93;;;6.10;99.90;;;;;;5004951;28;20622;-52
2021/03/19 12:21:07;;;;;;;2.13;0.87;;;6.10;99.90;;;;;;4998481;28;20201;-50
2021/03/19 12:23:33;;;;;;;3.43;1.10;;;6.10;99.90;;;;;;4990493;28;20208;-53
2021/03/19 12:25:58;;;;;;;1.13;0.90;;;6.20;99.90;;;;;;4995778;28;20275;-53
2021/03/19 12:28:24;;;;;;;1.57;0.97;;;6.30;99.90;;;;;;5002650;28;20254;-55
2021/03/19 12:30:55;;;;;;;2.03;0.70;;;6.20;99.90;;;;;;4992328;28;20190;-50
2021/03/19 12:33:22;;;;;;;0.33;0.33;;;6.10;99.90;;;;;;4994146;28;20208;-56
2021/03/19 12:35:49;;;;;;;0.80;0.40;;;6.00;99.90;;;;;;4998582;28;20189;-57
2021/03/19 12:38:16;;;;;;;0.70;0.70;;;6.10;99.90;;;;;;4978740;28;20271;-50
2021/03/19 12:40:42;;;;;;;1.13;0.70;;;6.10;99.90;;;;;;4987891;28;20216;-53
2021/03/19 12:43:10;;;;;;;3.57;0.80;;;6.20;99.90;;;;;;5000276;28;20188;-52
2021/03/19 12:45:36;;;;;;;3.87;0.80;;;6.20;99.90;;;;;;4989779;28;20246;-49
2021/03/19 12:48:03;;;;;;;2.67;1.10;;;6.10;99.90;;;;;;4986753;28;20359;-50
2021/03/19 12:50:29;;;;;;;2.33;1.13;;;6.00;99.90;;;;;;4985996;28;20178;-49
2021/03/19 12:52:59;;;;;;;1.83;0.77;;;5.80;99.90;;;;;;4975169;28;20216;-55
2021/03/19 12:55:26;;;;;;;1.20;1.07;;;5.90;99.90;;;;;;5004359;28;20557;-52
2021/03/19 12:57:52;;;;;;;1.23;1.00;;;5.80;99.90;;;;;;4994830;28;20377;-53
2021/03/19 13:00:27;;;;;;;2.70;0.80;;;5.60;99.90;;;;;;5004518;28;20721;-54
2021/03/19 13:02:53;;;;;;;1.00;0.80;;;5.50;99.90;;;;;;4995016;28;20180;-56
2021/03/19 13:05:23;;;;;;;2.00;0.90;;;5.60;99.90;;;;;;4998316;28;20585;-52
2021/03/19 13:07:48;;;;;;;1.70;1.03;;;5.60;99.90;;;;;;4991876;28;20201;-55
2021/03/19 13:10:16;;;;;;;2.57;1.30;;;5.50;99.90;;;;;;4990196;28;20181;-54
2021/03/19 13:12:41;;;;;;;2.00;0.90;;;5.40;99.90;;;;;;4999467;28;20185;-54
2021/03/19 13:15:09;;;;;;;1.97;0.83;;;5.30;99.90;;;;;;4999031;28;20180;-53
2021/03/19 13:17:35;;;;;;;1.00;0.80;;;5.20;99.90;;;;;;4999430;28;20212;-52
2021/03/19 13:20:01;;;;;;;1.80;0.87;;;5.10;99.90;;;;;;4993925;28;20553;-55
2021/03/19 13:22:26;;;;;;;2.70;1.13;;;5.00;99.90;;;;;;4991668;28;20373;-55
2021/03/19 13:24:52;;;;;;;3.17;1.00;;;5.00;99.90;;;;;;4985334;28;20750;-54
2021/03/19 13:27:18;;;;;;;1.73;1.07;;;5.10;99.90;;;;;;4992926;28;20699;-56
2021/03/19 13:29:44;;;;;;;1.93;1.17;;;5.10;99.90;;;;;;5004149;28;20204;-51
2021/03/19 13:32:09;;;;;;;3.40;1.07;;;5.10;99.90;;;;;;5001773;28;20211;-57